Flight Track Log - Related Links

Times and Time Zones

All times are in EDT time to prevent confusion due to time zone crossing. See the N1820F flight status page for this flight to view local times or setup timezone preferences in your user account.

Time Position Orientation Groundspeed Altitude Reporting Facility
EDT Latitude Longitude Course Direction KTS MPH feet Rate Location/Type
Thu 09:42:18 AM 40.4286 -75.9306 48° Northeast 142 163 2,000  Level Boston Center
Thu 09:43:20 AM 40.4511 -75.8975 48° Northeast 132 152 2,700 732 Climbing Boston Center
Thu 09:44:21 AM 40.4783 -75.8514 52° Northeast 132 152 3,500 818 Climbing Boston Center
Thu 09:45:10 AM 40.4972 -75.8256 46° Northeast 131 151 4,200 791 Climbing New York Center
Thu 09:45:52 AM 40.5150 -75.7994 48° Northeast 134 154 4,700 699 Climbing New York Center
Thu 09:46:53 AM 40.5375 -75.7603 53° Northeast 138 159 5,400 443 Climbing New York Center
Thu 09:47:54 AM 40.5661 -75.7186 48° Northeast 151 174 5,600 50 Climbing New York Center
Thu 09:48:53 AM 40.5953 -75.6714 51° Northeast 177 204 5,500 -48 Descending New York Center
Thu 09:50:00 AM 40.6328 -75.6194 46° Northeast 174 200 5,500  Level New York Center
Thu 09:51:01 AM 40.6642 -75.5669 52° Northeast 173 199 5,500  Level New York Center
Thu 09:51:56 AM 40.6931 -75.5225 49° Northeast 174 200 5,500  Level New York Center
Thu 09:52:57 AM 40.7242 -75.4753 49° Northeast 173 199 5,500  Level New York Center
Thu 09:53:59 AM 40.7553 -75.4228 52° Northeast 173 199 5,500  Level New York Center
Thu 09:54:58 AM 40.7864 -75.3781 47° Northeast 173 199 5,500  Level New York Center
Thu 09:56:00 AM 40.8175 -75.3281 51° Northeast 173 199 5,500  Level New York Center
Thu 09:57:13 AM 40.8569 -75.2733 46° Northeast 173 199 5,500  Level New York Center
Thu 09:58:08 AM 40.8975 -75.2483 25° Northeast 173 199 5,500  Level New York Center
Thu 09:59:02 AM 40.9283 -75.2067 46° Northeast 172 198 5,500  Level New York Center
Thu 10:00:02 AM 40.9592 -75.1619 48° Northeast 173 199 5,500  Level New York Center
Thu 10:01:02 AM 40.9922 -75.1117 49° Northeast 172 198 5,500  Level New York Center
Thu 10:01:56 AM 41.0208 -75.0722 46° Northeast 170 196 5,500  Level New York Center
Thu 10:03:03 AM 41.0581 -75.0225 45° Northeast 173 199 5,500  Level New York Center
Thu 10:04:16 AM 41.0975 -74.9644 48° Northeast 174 200 5,500  Level New York Center
Thu 10:05:17 AM 41.1325 -74.9169 46° Northeast 172 198 5,500  Level New York Center
Thu 10:06:58 AM 41.1889 -74.8378 47° Northeast 171 197 5,500  Level Boston Center
Thu 10:08:00 AM 41.2206 -74.7919 47° Northeast 171 197 5,500  Level Boston Center
Thu 10:09:02 AM 41.2569 -74.7414 46° Northeast 171 197 5,500  Level Boston Center
Thu 10:10:03 AM 41.2900 -74.6947 47° Northeast 172 198 5,500  Level Boston Center
Thu 10:11:05 AM 41.3247 -74.6447 47° Northeast 172 198 5,500  Level Boston Center
Thu 10:12:09 AM 41.3667 -74.6000 39° Northeast 170 196 5,500  Level New York TRACON
Thu 10:13:09 AM 41.3897 -74.5525 57° Northeast 171 197 5,500  Level Boston Center
Thu 10:14:10 AM 41.4244 -74.5019 48° Northeast 171 197 5,500  Level Boston Center
Thu 10:15:12 AM 41.4569 -74.4561 47° Northeast 172 198 5,500  Level Boston Center
Thu 10:16:14 AM 41.4917 -74.4058 47° Northeast 171 197 5,500  Level Boston Center
Thu 10:17:16 AM 41.5244 -74.3600 46° Northeast 171 197 5,500  Level Boston Center
Thu 10:18:17 AM 41.5567 -74.3133 47° Northeast 171 197 5,500  Level Boston Center
Thu 10:19:19 AM 41.5914 -74.2622 48° Northeast 171 197 5,500  Level Boston Center
Thu 10:20:21 AM 41.6242 -74.2158 47° Northeast 171 197 5,500  Level Boston Center
Thu 10:21:23 AM 41.6569 -74.1692 47° Northeast 171 197 5,500  Level Boston Center
Thu 10:22:24 AM 41.6914 -74.1189 47° Northeast 171 197 5,500  Level Boston Center
Thu 10:23:26 AM 41.7233 -74.0725 47° Northeast 171 197 5,500  Level Boston Center
Thu 10:23:39 AM 41.7311 -74.0614 47° Northeast 171 197 5,500  Level Boston Center
Thu 10:24:40 AM 41.7628 -74.0153 47° Northeast 171 197 5,500  Level Boston Center
Thu 10:25:42 AM 41.7953 -73.9686 47° Northeast 171 197 5,500  Level Boston Center
Thu 10:26:44 AM 41.8297 -73.9181 48° Northeast 171 197 5,500  Level Boston Center
Thu 10:27:46 AM 41.8625 -73.8731 46° Northeast 171 197 5,500  Level Boston Center
Thu 10:28:48 AM 41.8967 -73.8228 48° Northeast 171 197 5,500  Level Boston Center
Thu 10:29:49 AM 41.9289 -73.7758 47° Northeast 171 197 5,500  Level Boston Center
Thu 10:30:51 AM 41.9608 -73.7297 47° Northeast 171 197 5,500 -290 Level Boston Center
Thu 10:31:53 AM 41.9964 -73.6778 47° Northeast 175 201 4,900 -774 Descending Boston Center
Thu 10:32:55 AM 42.0322 -73.6233 48° Northeast 191 220 3,900 -1,050 Descending Boston Center
Thu 10:33:13 AM 42.0428 -73.6039 54° Northeast 197 227 3,500 -1,333 Descending Boston Center

Login

Don't have an account? Register now (free) for customized features, flight alerts, and more!